sensor_id;sensor_type;location;lat;lon;timestamp;P1;durP1;ratioP1;P2;durP2;ratioP2
26598;SDS011;14240;51.064;16.612;2023-12-20T00:01:22;23.40;;;12.48;;
26598;SDS011;14240;51.064;16.612;2023-12-20T00:03:48;23.67;;;11.85;;
26598;SDS011;14240;51.064;16.612;2023-12-20T00:06:13;26.85;;;13.30;;
26598;SDS011;14240;51.064;16.612;2023-12-20T00:08:39;49.53;;;18.08;;
26598;SDS011;14240;51.064;16.612;2023-12-20T00:11:05;44.67;;;19.08;;
26598;SDS011;14240;51.064;16.612;2023-12-20T00:13:31;29.08;;;13.90;;
26598;SDS011;14240;51.064;16.612;2023-12-20T00:15:56;64.80;;;24.25;;
26598;SDS011;14240;51.064;16.612;2023-12-20T00:18:23;33.45;;;15.20;;
26598;SDS011;14240;51.064;16.612;2023-12-20T00:20:49;21.40;;;11.40;;
26598;SDS011;14240;51.064;16.612;2023-12-20T00:23:14;21.13;;;12.13;;
26598;SDS011;14240;51.064;16.612;2023-12-20T00:25:40;21.33;;;11.77;;
26598;SDS011;14240;51.064;16.612;2023-12-20T00:28:06;20.52;;;11.73;;
26598;SDS011;14240;51.064;16.612;2023-12-20T00:30:32;20.85;;;10.40;;
26598;SDS011;14240;51.064;16.612;2023-12-20T00:32:57;21.10;;;11.77;;
26598;SDS011;14240;51.064;16.612;2023-12-20T00:35:23;16.77;;;9.95;;
26598;SDS011;14240;51.064;16.612;2023-12-20T00:37:49;21.65;;;10.07;;
26598;SDS011;14240;51.064;16.612;2023-12-20T00:40:15;20.98;;;10.10;;
26598;SDS011;14240;51.064;16.612;2023-12-20T00:42:40;18.35;;;11.05;;
26598;SDS011;14240;51.064;16.612;2023-12-20T00:45:06;17.48;;;10.75;;
26598;SDS011;14240;51.064;16.612;2023-12-20T00:47:32;26.65;;;11.52;;
26598;SDS011;14240;51.064;16.612;2023-12-20T00:49:58;18.88;;;10.23;;
26598;SDS011;14240;51.064;16.612;2023-12-20T00:52:24;16.98;;;9.80;;
26598;SDS011;14240;51.064;16.612;2023-12-20T00:54:50;19.10;;;11.07;;
26598;SDS011;14240;51.064;16.612;2023-12-20T00:57:15;16.10;;;9.77;;
26598;SDS011;14240;51.064;16.612;2023-12-20T00:59:41;18.17;;;10.70;;
26598;SDS011;14240;51.064;16.612;2023-12-20T01:02:07;16.73;;;9.30;;
26598;SDS011;14240;51.064;16.612;2023-12-20T01:04:33;15.57;;;9.60;;
26598;SDS011;14240;51.064;16.612;2023-12-20T01:06:59;18.30;;;11.32;;
26598;SDS011;14240;51.064;16.612;2023-12-20T01:09:25;20.50;;;10.95;;
26598;SDS011;14240;51.064;16.612;2023-12-20T01:11:54;16.70;;;10.00;;
26598;SDS011;14240;51.064;16.612;2023-12-20T01:14:19;16.20;;;9.05;;
26598;SDS011;14240;51.064;16.612;2023-12-20T01:16:45;18.33;;;9.32;;
26598;SDS011;14240;51.064;16.612;2023-12-20T01:19:11;20.45;;;10.45;;
26598;SDS011;14240;51.064;16.612;2023-12-20T01:21:38;17.87;;;9.57;;
26598;SDS011;14240;51.064;16.612;2023-12-20T01:24:04;14.90;;;9.50;;
26598;SDS011;14240;51.064;16.612;2023-12-20T01:26:30;14.15;;;8.85;;
26598;SDS011;14240;51.064;16.612;2023-12-20T01:28:55;13.10;;;7.82;;
26598;SDS011;14240;51.064;16.612;2023-12-20T01:31:21;11.88;;;7.13;;
26598;SDS011;14240;51.064;16.612;2023-12-20T01:33:47;7.63;;;6.05;;
26598;SDS011;14240;51.064;16.612;2023-12-20T01:36:12;10.65;;;5.90;;
26598;SDS011;14240;51.064;16.612;2023-12-20T01:38:38;8.63;;;5.05;;
26598;SDS011;14240;51.064;16.612;2023-12-20T01:41:04;11.63;;;4.97;;
26598;SDS011;14240;51.064;16.612;2023-12-20T01:43:30;10.70;;;5.85;;
26598;SDS011;14240;51.064;16.612;2023-12-20T01:45:56;11.00;;;4.82;;
26598;SDS011;14240;51.064;16.612;2023-12-20T01:48:22;7.70;;;4.68;;
26598;SDS011;14240;51.064;16.612;2023-12-20T01:50:49;9.32;;;4.68;;
26598;SDS011;14240;51.064;16.612;2023-12-20T01:53:16;7.65;;;4.45;;
26598;SDS011;14240;51.064;16.612;2023-12-20T01:55:42;7.50;;;4.40;;
26598;SDS011;14240;51.064;16.612;2023-12-20T01:58:09;9.52;;;4.95;;
26598;SDS011;14240;51.064;16.612;2023-12-20T02:00:37;12.80;;;6.63;;
26598;SDS011;14240;51.064;16.612;2023-12-20T02:03:03;6.80;;;4.88;;
26598;SDS011;14240;51.064;16.612;2023-12-20T02:05:30;7.35;;;4.50;;
26598;SDS011;14240;51.064;16.612;2023-12-20T02:07:56;5.93;;;4.05;;
26598;SDS011;14240;51.064;16.612;2023-12-20T02:10:22;6.35;;;4.13;;
26598;SDS011;14240;51.064;16.612;2023-12-20T02:12:49;6.05;;;4.05;;
26598;SDS011;14240;51.064;16.612;2023-12-20T02:15:15;7.72;;;4.50;;
26598;SDS011;14240;51.064;16.612;2023-12-20T02:17:40;7.60;;;4.95;;
26598;SDS011;14240;51.064;16.612;2023-12-20T02:20:06;6.45;;;4.53;;
26598;SDS011;14240;51.064;16.612;2023-12-20T02:22:32;7.90;;;4.20;;
26598;SDS011;14240;51.064;16.612;2023-12-20T02:24:58;6.97;;;4.60;;
26598;SDS011;14240;51.064;16.612;2023-12-20T02:27:23;7.93;;;4.45;;
26598;SDS011;14240;51.064;16.612;2023-12-20T02:29:49;11.38;;;5.95;;
26598;SDS011;14240;51.064;16.612;2023-12-20T02:32:18;7.32;;;5.07;;
26598;SDS011;14240;51.064;16.612;2023-12-20T02:34:46;6.60;;;4.95;;
26598;SDS011;14240;51.064;16.612;2023-12-20T02:39:38;7.03;;;3.35;;
26598;SDS011;14240;51.064;16.612;2023-12-20T02:42:04;6.38;;;4.18;;
26598;SDS011;14240;51.064;16.612;2023-12-20T02:44:30;8.70;;;4.18;;
26598;SDS011;14240;51.064;16.612;2023-12-20T02:46:55;5.13;;;3.30;;
26598;SDS011;14240;51.064;16.612;2023-12-20T02:49:21;7.13;;;3.97;;
26598;SDS011;14240;51.064;16.612;2023-12-20T02:51:47;8.90;;;5.18;;
26598;SDS011;14240;51.064;16.612;2023-12-20T02:54:12;8.10;;;4.45;;
26598;SDS011;14240;51.064;16.612;2023-12-20T02:56:38;11.18;;;4.70;;
26598;SDS011;14240;51.064;16.612;2023-12-20T02:59:04;7.15;;;3.55;;
26598;SDS011;14240;51.064;16.612;2023-12-20T03:01:31;9.68;;;5.18;;
26598;SDS011;14240;51.064;16.612;2023-12-20T03:03:57;7.45;;;4.95;;
26598;SDS011;14240;51.064;16.612;2023-12-20T03:06:22;5.95;;;4.10;;
26598;SDS011;14240;51.064;16.612;2023-12-20T03:08:48;5.82;;;4.05;;
26598;SDS011;14240;51.064;16.612;2023-12-20T03:11:14;6.47;;;3.53;;
26598;SDS011;14240;51.064;16.612;2023-12-20T03:13:40;10.35;;;4.82;;
26598;SDS011;14240;51.064;16.612;2023-12-20T03:16:12;11.50;;;4.07;;
26598;SDS011;14240;51.064;16.612;2023-12-20T03:18:38;11.75;;;5.03;;
26598;SDS011;14240;51.064;16.612;2023-12-20T03:21:05;9.63;;;5.05;;
26598;SDS011;14240;51.064;16.612;2023-12-20T03:23:31;7.65;;;3.85;;
26598;SDS011;14240;51.064;16.612;2023-12-20T03:25:58;7.85;;;4.60;;
26598;SDS011;14240;51.064;16.612;2023-12-20T03:28:24;9.95;;;5.43;;
26598;SDS011;14240;51.064;16.612;2023-12-20T03:30:51;12.05;;;5.63;;
26598;SDS011;14240;51.064;16.612;2023-12-20T03:33:17;7.10;;;4.70;;
26598;SDS011;14240;51.064;16.612;2023-12-20T03:35:43;7.53;;;5.90;;
26598;SDS011;14240;51.064;16.612;2023-12-20T03:38:08;6.50;;;4.15;;
26598;SDS011;14240;51.064;16.612;2023-12-20T03:40:34;8.55;;;4.85;;
26598;SDS011;14240;51.064;16.612;2023-12-20T03:43:00;11.45;;;5.20;;
26598;SDS011;14240;51.064;16.612;2023-12-20T03:45:26;8.00;;;4.45;;
26598;SDS011;14240;51.064;16.612;2023-12-20T03:47:51;6.85;;;3.35;;
26598;SDS011;14240;51.064;16.612;2023-12-20T03:50:24;5.75;;;3.30;;
26598;SDS011;14240;51.064;16.612;2023-12-20T03:52:50;8.18;;;2.97;;
26598;SDS011;14240;51.064;16.612;2023-12-20T03:55:16;5.20;;;2.90;;
26598;SDS011;14240;51.064;16.612;2023-12-20T03:57:41;5.40;;;2.60;;
26598;SDS011;14240;51.064;16.612;2023-12-20T04:00:07;5.65;;;2.75;;
26598;SDS011;14240;51.064;16.612;2023-12-20T04:02:36;2.72;;;2.05;;
26598;SDS011;14240;51.064;16.612;2023-12-20T04:05:05;2.70;;;2.30;;
26598;SDS011;14240;51.064;16.612;2023-12-20T04:07:32;1.80;;;1.48;;
26598;SDS011;14240;51.064;16.612;2023-12-20T04:09:57;3.30;;;1.98;;
26598;SDS011;14240;51.064;16.612;2023-12-20T04:12:23;5.13;;;2.10;;
26598;SDS011;14240;51.064;16.612;2023-12-20T04:14:49;3.05;;;2.30;;
26598;SDS011;14240;51.064;16.612;2023-12-20T04:17:15;6.97;;;2.60;;
26598;SDS011;14240;51.064;16.612;2023-12-20T04:19:42;3.95;;;1.80;;
26598;SDS011;14240;51.064;16.612;2023-12-20T04:22:07;3.30;;;1.90;;
26598;SDS011;14240;51.064;16.612;2023-12-20T04:24:33;3.75;;;2.25;;
26598;SDS011;14240;51.064;16.612;2023-12-20T04:26:59;5.45;;;2.30;;
26598;SDS011;14240;51.064;16.612;2023-12-20T04:29:25;4.03;;;2.80;;
26598;SDS011;14240;51.064;16.612;2023-12-20T04:31:50;3.80;;;2.60;;
26598;SDS011;14240;51.064;16.612;2023-12-20T04:34:17;3.10;;;2.25;;
26598;SDS011;14240;51.064;16.612;2023-12-20T04:36:43;3.47;;;1.60;;
26598;SDS011;14240;51.064;16.612;2023-12-20T04:39:09;2.55;;;1.95;;
26598;SDS011;14240;51.064;16.612;2023-12-20T04:41:35;7.25;;;3.45;;
26598;SDS011;14240;51.064;16.612;2023-12-20T04:44:01;4.07;;;2.28;;
26598;SDS011;14240;51.064;16.612;2023-12-20T04:46:27;7.20;;;4.50;;
26598;SDS011;14240;51.064;16.612;2023-12-20T04:48:53;6.82;;;3.55;;
26598;SDS011;14240;51.064;16.612;2023-12-20T04:51:19;4.90;;;2.53;;
26598;SDS011;14240;51.064;16.612;2023-12-20T04:53:45;4.00;;;2.78;;
26598;SDS011;14240;51.064;16.612;2023-12-20T04:56:10;3.08;;;2.05;;
26598;SDS011;14240;51.064;16.612;2023-12-20T04:58:36;8.73;;;3.90;;
26598;SDS011;14240;51.064;16.612;2023-12-20T05:01:03;4.00;;;2.65;;
26598;SDS011;14240;51.064;16.612;2023-12-20T05:03:30;2.92;;;2.17;;
26598;SDS011;14240;51.064;16.612;2023-12-20T05:05:56;4.10;;;1.90;;
26598;SDS011;14240;51.064;16.612;2023-12-20T05:08:22;5.85;;;2.33;;
26598;SDS011;14240;51.064;16.612;2023-12-20T05:10:47;4.95;;;2.65;;
26598;SDS011;14240;51.064;16.612;2023-12-20T05:13:13;4.88;;;1.92;;
26598;SDS011;14240;51.064;16.612;2023-12-20T05:15:39;2.25;;;1.25;;
26598;SDS011;14240;51.064;16.612;2023-12-20T05:18:05;1.83;;;1.50;;
26598;SDS011;14240;51.064;16.612;2023-12-20T05:20:30;3.92;;;2.15;;
26598;SDS011;14240;51.064;16.612;2023-12-20T05:22:56;4.32;;;2.50;;
26598;SDS011;14240;51.064;16.612;2023-12-20T05:25:22;4.60;;;3.00;;
26598;SDS011;14240;51.064;16.612;2023-12-20T05:27:47;3.67;;;2.75;;
26598;SDS011;14240;51.064;16.612;2023-12-20T05:30:13;3.40;;;2.20;;
26598;SDS011;14240;51.064;16.612;2023-12-20T05:32:39;5.55;;;2.85;;
26598;SDS011;14240;51.064;16.612;2023-12-20T05:35:05;7.03;;;3.20;;
26598;SDS011;14240;51.064;16.612;2023-12-20T05:37:31;6.90;;;3.28;;
26598;SDS011;14240;51.064;16.612;2023-12-20T05:39:56;9.75;;;4.40;;
26598;SDS011;14240;51.064;16.612;2023-12-20T05:42:22;3.45;;;2.50;;
26598;SDS011;14240;51.064;16.612;2023-12-20T05:44:48;4.60;;;3.42;;
26598;SDS011;14240;51.064;16.612;2023-12-20T05:47:14;5.07;;;3.05;;
26598;SDS011;14240;51.064;16.612;2023-12-20T05:49:39;5.25;;;2.80;;
26598;SDS011;14240;51.064;16.612;2023-12-20T05:52:05;4.68;;;2.53;;
26598;SDS011;14240;51.064;16.612;2023-12-20T05:54:31;7.22;;;3.08;;
26598;SDS011;14240;51.064;16.612;2023-12-20T05:56:56;11.68;;;5.50;;
26598;SDS011;14240;51.064;16.612;2023-12-20T05:59:22;6.18;;;4.32;;
26598;SDS011;14240;51.064;16.612;2023-12-20T06:01:48;4.85;;;2.90;;
26598;SDS011;14240;51.064;16.612;2023-12-20T06:04:13;3.55;;;2.38;;
26598;SDS011;14240;51.064;16.612;2023-12-20T06:06:42;7.80;;;4.03;;
26598;SDS011;14240;51.064;16.612;2023-12-20T06:09:08;3.22;;;2.10;;
26598;SDS011;14240;51.064;16.612;2023-12-20T06:11:34;6.55;;;2.28;;
26598;SDS011;14240;51.064;16.612;2023-12-20T06:14:00;2.50;;;1.48;;
26598;SDS011;14240;51.064;16.612;2023-12-20T06:16:26;3.83;;;2.20;;
26598;SDS011;14240;51.064;16.612;2023-12-20T06:18:52;2.95;;;1.92;;
26598;SDS011;14240;51.064;16.612;2023-12-20T06:21:17;3.05;;;1.90;;
26598;SDS011;14240;51.064;16.612;2023-12-20T06:23:43;4.43;;;2.25;;
26598;SDS011;14240;51.064;16.612;2023-12-20T06:26:09;3.13;;;1.77;;
26598;SDS011;14240;51.064;16.612;2023-12-20T06:28:35;6.93;;;4.10;;
26598;SDS011;14240;51.064;16.612;2023-12-20T06:31:00;4.38;;;2.47;;
26598;SDS011;14240;51.064;16.612;2023-12-20T06:33:26;2.17;;;1.50;;
26598;SDS011;14240;51.064;16.612;2023-12-20T06:35:52;4.40;;;2.10;;
26598;SDS011;14240;51.064;16.612;2023-12-20T06:38:18;7.10;;;2.88;;
26598;SDS011;14240;51.064;16.612;2023-12-20T06:40:44;7.50;;;3.67;;
26598;SDS011;14240;51.064;16.612;2023-12-20T06:43:10;2.70;;;1.83;;
26598;SDS011;14240;51.064;16.612;2023-12-20T06:45:37;4.95;;;2.33;;
26598;SDS011;14240;51.064;16.612;2023-12-20T06:48:03;3.55;;;2.10;;
26598;SDS011;14240;51.064;16.612;2023-12-20T06:50:29;4.10;;;2.42;;
26598;SDS011;14240;51.064;16.612;2023-12-20T06:52:54;3.92;;;2.17;;
26598;SDS011;14240;51.064;16.612;2023-12-20T06:55:20;4.05;;;1.67;;
26598;SDS011;14240;51.064;16.612;2023-12-20T06:57:46;3.58;;;2.42;;
26598;SDS011;14240;51.064;16.612;2023-12-20T07:00:11;3.55;;;2.10;;
26598;SDS011;14240;51.064;16.612;2023-12-20T07:02:38;1.67;;;1.20;;
26598;SDS011;14240;51.064;16.612;2023-12-20T07:05:03;3.88;;;2.08;;
26598;SDS011;14240;51.064;16.612;2023-12-20T07:07:29;2.17;;;1.58;;
26598;SDS011;14240;51.064;16.612;2023-12-20T07:09:55;3.50;;;1.63;;
26598;SDS011;14240;51.064;16.612;2023-12-20T07:12:21;3.35;;;1.83;;
26598;SDS011;14240;51.064;16.612;2023-12-20T07:14:47;2.45;;;1.17;;
26598;SDS011;14240;51.064;16.612;2023-12-20T07:17:13;2.35;;;1.55;;
26598;SDS011;14240;51.064;16.612;2023-12-20T07:19:40;5.03;;;2.47;;
26598;SDS011;14240;51.064;16.612;2023-12-20T07:22:06;2.72;;;1.95;;
26598;SDS011;14240;51.064;16.612;2023-12-20T07:24:32;4.25;;;2.38;;
26598;SDS011;14240;51.064;16.612;2023-12-20T07:26:59;5.15;;;2.30;;
26598;SDS011;14240;51.064;16.612;2023-12-20T07:29:25;7.90;;;2.78;;
26598;SDS011;14240;51.064;16.612;2023-12-20T07:31:52;3.22;;;1.95;;
26598;SDS011;14240;51.064;16.612;2023-12-20T07:34:19;2.50;;;1.73;;
26598;SDS011;14240;51.064;16.612;2023-12-20T07:36:45;2.63;;;1.50;;
26598;SDS011;14240;51.064;16.612;2023-12-20T07:39:11;2.45;;;1.63;;
26598;SDS011;14240;51.064;16.612;2023-12-20T07:41:36;4.28;;;2.40;;
26598;SDS011;14240;51.064;16.612;2023-12-20T07:44:03;7.55;;;3.05;;
26598;SDS011;14240;51.064;16.612;2023-12-20T07:46:29;5.47;;;2.38;;
26598;SDS011;14240;51.064;16.612;2023-12-20T07:48:55;8.27;;;2.97;;
26598;SDS011;14240;51.064;16.612;2023-12-20T07:51:21;4.50;;;2.25;;
26598;SDS011;14240;51.064;16.612;2023-12-20T07:53:47;8.20;;;3.65;;
26598;SDS011;14240;51.064;16.612;2023-12-20T07:56:15;5.25;;;1.75;;
26598;SDS011;14240;51.064;16.612;2023-12-20T07:58:43;1.95;;;1.15;;
26598;SDS011;14240;51.064;16.612;2023-12-20T08:01:09;4.72;;;3.13;;
26598;SDS011;14240;51.064;16.612;2023-12-20T08:03:35;3.47;;;2.60;;
26598;SDS011;14240;51.064;16.612;2023-12-20T08:06:01;26.00;;;13.38;;
26598;SDS011;14240;51.064;16.612;2023-12-20T08:08:27;3.45;;;3.10;;
26598;SDS011;14240;51.064;16.612;2023-12-20T08:10:53;5.18;;;3.42;;
26598;SDS011;14240;51.064;16.612;2023-12-20T08:13:19;3.53;;;2.05;;
26598;SDS011;14240;51.064;16.612;2023-12-20T08:15:45;2.40;;;1.45;;
26598;SDS011;14240;51.064;16.612;2023-12-20T08:18:10;2.05;;;1.48;;
26598;SDS011;14240;51.064;16.612;2023-12-20T08:20:36;3.45;;;1.55;;
26598;SDS011;14240;51.064;16.612;2023-12-20T08:23:02;4.57;;;1.83;;
26598;SDS011;14240;51.064;16.612;2023-12-20T08:25:28;2.10;;;1.20;;
26598;SDS011;14240;51.064;16.612;2023-12-20T08:27:53;2.85;;;1.50;;
26598;SDS011;14240;51.064;16.612;2023-12-20T08:30:19;5.55;;;1.95;;
26598;SDS011;14240;51.064;16.612;2023-12-20T08:32:47;3.38;;;1.70;;
26598;SDS011;14240;51.064;16.612;2023-12-20T08:35:13;4.27;;;2.27;;
26598;SDS011;14240;51.064;16.612;2023-12-20T08:37:39;3.20;;;1.70;;
26598;SDS011;14240;51.064;16.612;2023-12-20T08:40:05;4.05;;;2.08;;
26598;SDS011;14240;51.064;16.612;2023-12-20T08:42:31;2.72;;;1.90;;
26598;SDS011;14240;51.064;16.612;2023-12-20T08:44:57;20.25;;;10.52;;
26598;SDS011;14240;51.064;16.612;2023-12-20T08:47:26;4.05;;;1.90;;
26598;SDS011;14240;51.064;16.612;2023-12-20T08:49:52;2.13;;;1.45;;
26598;SDS011;14240;51.064;16.612;2023-12-20T08:52:21;1.95;;;1.30;;
26598;SDS011;14240;51.064;16.612;2023-12-20T08:54:48;4.57;;;1.23;;
26598;SDS011;14240;51.064;16.612;2023-12-20T08:57:19;1.27;;;1.10;;
26598;SDS011;14240;51.064;16.612;2023-12-20T08:59:45;2.30;;;1.50;;
26598;SDS011;14240;51.064;16.612;2023-12-20T09:02:12;2.47;;;1.33;;
26598;SDS011;14240;51.064;16.612;2023-12-20T09:04:37;2.42;;;1.65;;
26598;SDS011;14240;51.064;16.612;2023-12-20T09:07:04;2.58;;;1.48;;
26598;SDS011;14240;51.064;16.612;2023-12-20T09:09:29;1.55;;;1.27;;
26598;SDS011;14240;51.064;16.612;2023-12-20T09:11:57;1.90;;;1.48;;
26598;SDS011;14240;51.064;16.612;2023-12-20T09:14:23;1.80;;;1.60;;
26598;SDS011;14240;51.064;16.612;2023-12-20T09:16:49;1.20;;;1.10;;
26598;SDS011;14240;51.064;16.612;2023-12-20T09:19:16;1.80;;;1.15;;
26598;SDS011;14240;51.064;16.612;2023-12-20T09:21:42;3.42;;;1.60;;
26598;SDS011;14240;51.064;16.612;2023-12-20T09:24:08;1.48;;;1.20;;
26598;SDS011;14240;51.064;16.612;2023-12-20T09:26:34;4.70;;;2.00;;
26598;SDS011;14240;51.064;16.612;2023-12-20T09:29:00;1.63;;;1.45;;
26598;SDS011;14240;51.064;16.612;2023-12-20T09:31:26;3.38;;;1.80;;
26598;SDS011;14240;51.064;16.612;2023-12-20T09:33:52;3.72;;;1.58;;
26598;SDS011;14240;51.064;16.612;2023-12-20T09:36:17;2.55;;;1.90;;
26598;SDS011;14240;51.064;16.612;2023-12-20T09:38:43;6.00;;;2.58;;
26598;SDS011;14240;51.064;16.612;2023-12-20T09:41:09;5.07;;;2.55;;
26598;SDS011;14240;51.064;16.612;2023-12-20T09:43:37;8.93;;;2.90;;
26598;SDS011;14240;51.064;16.612;2023-12-20T09:46:05;2.75;;;1.80;;
26598;SDS011;14240;51.064;16.612;2023-12-20T09:48:35;3.00;;;1.65;;
26598;SDS011;14240;51.064;16.612;2023-12-20T09:51:02;3.30;;;1.92;;
26598;SDS011;14240;51.064;16.612;2023-12-20T09:53:28;4.53;;;1.90;;
26598;SDS011;14240;51.064;16.612;2023-12-20T09:55:56;4.60;;;2.17;;
26598;SDS011;14240;51.064;16.612;2023-12-20T09:58:26;7.47;;;2.30;;
26598;SDS011;14240;51.064;16.612;2023-12-20T10:00:52;6.90;;;2.67;;
26598;SDS011;14240;51.064;16.612;2023-12-20T10:03:20;4.55;;;1.80;;
26598;SDS011;14240;51.064;16.612;2023-12-20T10:05:50;8.25;;;2.45;;
26598;SDS011;14240;51.064;16.612;2023-12-20T10:08:19;8.90;;;2.95;;
26598;SDS011;14240;51.064;16.612;2023-12-20T10:10:47;8.73;;;2.90;;
26598;SDS011;14240;51.064;16.612;2023-12-20T10:13:13;8.55;;;2.88;;
26598;SDS011;14240;51.064;16.612;2023-12-20T10:15:39;6.25;;;2.90;;
26598;SDS011;14240;51.064;16.612;2023-12-20T10:18:05;5.70;;;2.30;;
26598;SDS011;14240;51.064;16.612;2023-12-20T10:20:32;4.38;;;2.83;;
26598;SDS011;14240;51.064;16.612;2023-12-20T10:22:59;3.13;;;1.92;;
26598;SDS011;14240;51.064;16.612;2023-12-20T10:25:25;3.30;;;2.15;;
26598;SDS011;14240;51.064;16.612;2023-12-20T10:28:08;4.10;;;2.40;;
26598;SDS011;14240;51.064;16.612;2023-12-20T10:30:44;5.35;;;2.38;;
26598;SDS011;14240;51.064;16.612;2023-12-20T10:33:10;7.88;;;2.55;;
26598;SDS011;14240;51.064;16.612;2023-12-20T10:35:37;3.25;;;2.20;;
26598;SDS011;14240;51.064;16.612;2023-12-20T10:38:04;8.18;;;2.40;;
26598;SDS011;14240;51.064;16.612;2023-12-20T10:40:31;6.43;;;2.20;;
26598;SDS011;14240;51.064;16.612;2023-12-20T10:43:04;4.05;;;2.22;;
26598;SDS011;14240;51.064;16.612;2023-12-20T10:45:30;5.93;;;2.50;;
26598;SDS011;14240;51.064;16.612;2023-12-20T10:47:56;5.38;;;2.58;;
26598;SDS011;14240;51.064;16.612;2023-12-20T10:50:26;4.80;;;2.20;;
26598;SDS011;14240;51.064;16.612;2023-12-20T10:52:54;4.95;;;2.30;;
26598;SDS011;14240;51.064;16.612;2023-12-20T10:55:21;8.83;;;2.60;;
26598;SDS011;14240;51.064;16.612;2023-12-20T10:57:48;6.25;;;3.00;;
26598;SDS011;14240;51.064;16.612;2023-12-20T11:00:20;6.35;;;2.67;;
26598;SDS011;14240;51.064;16.612;2023-12-20T11:02:48;9.68;;;2.63;;
26598;SDS011;14240;51.064;16.612;2023-12-20T11:07:43;4.22;;;2.40;;
26598;SDS011;14240;51.064;16.612;2023-12-20T11:10:23;8.20;;;2.97;;
26598;SDS011;14240;51.064;16.612;2023-12-20T11:15:21;5.13;;;3.92;;
26598;SDS011;14240;51.064;16.612;2023-12-20T11:17:54;9.60;;;3.90;;
26598;SDS011;14240;51.064;16.612;2023-12-20T11:20:23;6.90;;;3.08;;
26598;SDS011;14240;51.064;16.612;2023-12-20T11:23:00;4.03;;;2.60;;
26598;SDS011;14240;51.064;16.612;2023-12-20T11:25:26;6.03;;;1.90;;
26598;SDS011;14240;51.064;16.612;2023-12-20T11:28:06;5.22;;;1.70;;
26598;SDS011;14240;51.064;16.612;2023-12-20T11:30:42;7.53;;;2.95;;
26598;SDS011;14240;51.064;16.612;2023-12-20T11:33:12;4.45;;;1.63;;
26598;SDS011;14240;51.064;16.612;2023-12-20T11:35:40;3.78;;;1.55;;
26598;SDS011;14240;51.064;16.612;2023-12-20T11:38:09;2.20;;;1.70;;
26598;SDS011;14240;51.064;16.612;2023-12-20T11:40:35;2.63;;;2.03;;
26598;SDS011;14240;51.064;16.612;2023-12-20T11:43:02;2.72;;;1.63;;
26598;SDS011;14240;51.064;16.612;2023-12-20T11:45:30;3.20;;;1.77;;
26598;SDS011;14240;51.064;16.612;2023-12-20T11:47:57;7.70;;;3.90;;
26598;SDS011;14240;51.064;16.612;2023-12-20T11:50:23;3.22;;;2.17;;
26598;SDS011;14240;51.064;16.612;2023-12-20T11:52:50;10.52;;;4.93;;
26598;SDS011;14240;51.064;16.612;2023-12-20T11:55:17;23.17;;;9.90;;
26598;SDS011;14240;51.064;16.612;2023-12-20T11:57:43;16.52;;;7.20;;
26598;SDS011;14240;51.064;16.612;2023-12-20T12:00:10;16.40;;;7.85;;
26598;SDS011;14240;51.064;16.612;2023-12-20T12:02:36;8.50;;;5.38;;
26598;SDS011;14240;51.064;16.612;2023-12-20T12:05:02;7.90;;;5.30;;
26598;SDS011;14240;51.064;16.612;2023-12-20T12:07:30;5.20;;;2.15;;
26598;SDS011;14240;51.064;16.612;2023-12-20T12:09:56;5.90;;;2.10;;
26598;SDS011;14240;51.064;16.612;2023-12-20T12:12:23;4.32;;;1.80;;
26598;SDS011;14240;51.064;16.612;2023-12-20T12:14:50;5.88;;;2.95;;
26598;SDS011;14240;51.064;16.612;2023-12-20T12:17:16;6.05;;;2.13;;
26598;SDS011;14240;51.064;16.612;2023-12-20T12:19:42;5.72;;;2.67;;
26598;SDS011;14240;51.064;16.612;2023-12-20T12:22:09;5.53;;;2.67;;
26598;SDS011;14240;51.064;16.612;2023-12-20T12:24:40;5.35;;;2.38;;
26598;SDS011;14240;51.064;16.612;2023-12-20T12:27:07;8.82;;;3.90;;
26598;SDS011;14240;51.064;16.612;2023-12-20T12:29:34;19.75;;;9.77;;
26598;SDS011;14240;51.064;16.612;2023-12-20T12:32:01;12.48;;;6.25;;
26598;SDS011;14240;51.064;16.612;2023-12-20T12:34:29;24.67;;;9.80;;
26598;SDS011;14240;51.064;16.612;2023-12-20T12:36:56;16.80;;;8.40;;
26598;SDS011;14240;51.064;16.612;2023-12-20T12:39:23;17.02;;;7.88;;
26598;SDS011;14240;51.064;16.612;2023-12-20T12:41:50;16.73;;;6.32;;
26598;SDS011;14240;51.064;16.612;2023-12-20T12:44:16;24.45;;;8.95;;
26598;SDS011;14240;51.064;16.612;2023-12-20T12:46:43;16.52;;;6.05;;
26598;SDS011;14240;51.064;16.612;2023-12-20T12:49:09;11.73;;;6.32;;
26598;SDS011;14240;51.064;16.612;2023-12-20T12:51:35;27.73;;;10.55;;
26598;SDS011;14240;51.064;16.612;2023-12-20T12:54:01;40.92;;;16.92;;
26598;SDS011;14240;51.064;16.612;2023-12-20T12:56:27;52.63;;;20.65;;
26598;SDS011;14240;51.064;16.612;2023-12-20T12:58:53;70.18;;;26.98;;
26598;SDS011;14240;51.064;16.612;2023-12-20T13:01:19;121.88;;;44.25;;
26598;SDS011;14240;51.064;16.612;2023-12-20T13:03:45;72.88;;;31.73;;
26598;SDS011;14240;51.064;16.612;2023-12-20T13:06:11;53.17;;;20.02;;
26598;SDS011;14240;51.064;16.612;2023-12-20T13:08:37;52.65;;;23.10;;
26598;SDS011;14240;51.064;16.612;2023-12-20T13:11:03;23.02;;;11.77;;
26598;SDS011;14240;51.064;16.612;2023-12-20T13:13:29;20.38;;;7.60;;
26598;SDS011;14240;51.064;16.612;2023-12-20T13:15:56;15.25;;;4.43;;
26598;SDS011;14240;51.064;16.612;2023-12-20T13:18:22;10.45;;;4.78;;
26598;SDS011;14240;51.064;16.612;2023-12-20T13:20:48;11.32;;;4.03;;
26598;SDS011;14240;51.064;16.612;2023-12-20T13:23:15;7.18;;;2.90;;
26598;SDS011;14240;51.064;16.612;2023-12-20T13:25:43;7.57;;;3.10;;
26598;SDS011;14240;51.064;16.612;2023-12-20T13:28:10;7.90;;;3.38;;
26598;SDS011;14240;51.064;16.612;2023-12-20T13:30:37;9.88;;;3.30;;
26598;SDS011;14240;51.064;16.612;2023-12-20T13:33:03;5.50;;;2.78;;
26598;SDS011;14240;51.064;16.612;2023-12-20T13:35:30;4.50;;;2.30;;
26598;SDS011;14240;51.064;16.612;2023-12-20T13:37:57;65.63;;;21.80;;
26598;SDS011;14240;51.064;16.612;2023-12-20T13:40:23;31.40;;;13.15;;
26598;SDS011;14240;51.064;16.612;2023-12-20T13:42:49;25.50;;;12.40;;
26598;SDS011;14240;51.064;16.612;2023-12-20T13:45:15;16.48;;;9.30;;
26598;SDS011;14240;51.064;16.612;2023-12-20T13:47:40;16.30;;;5.38;;
26598;SDS011;14240;51.064;16.612;2023-12-20T13:50:06;8.13;;;2.97;;
26598;SDS011;14240;51.064;16.612;2023-12-20T13:52:32;19.67;;;7.53;;
26598;SDS011;14240;51.064;16.612;2023-12-20T13:54:58;6.70;;;3.17;;
26598;SDS011;14240;51.064;16.612;2023-12-20T13:57:24;11.32;;;5.00;;
26598;SDS011;14240;51.064;16.612;2023-12-20T13:59:49;10.52;;;4.20;;
26598;SDS011;14240;51.064;16.612;2023-12-20T14:02:15;5.65;;;2.03;;
26598;SDS011;14240;51.064;16.612;2023-12-20T14:04:43;8.15;;;3.03;;
26598;SDS011;14240;51.064;16.612;2023-12-20T14:07:09;13.98;;;4.85;;
26598;SDS011;14240;51.064;16.612;2023-12-20T14:09:36;13.82;;;4.22;;
26598;SDS011;14240;51.064;16.612;2023-12-20T14:12:02;7.07;;;3.47;;
26598;SDS011;14240;51.064;16.612;2023-12-20T14:14:28;11.60;;;5.05;;
26598;SDS011;14240;51.064;16.612;2023-12-20T14:16:54;23.55;;;10.93;;
26598;SDS011;14240;51.064;16.612;2023-12-20T14:19:20;29.75;;;12.60;;
26598;SDS011;14240;51.064;16.612;2023-12-20T14:21:46;18.10;;;10.57;;
26598;SDS011;14240;51.064;16.612;2023-12-20T14:24:15;7.47;;;4.05;;
26598;SDS011;14240;51.064;16.612;2023-12-20T14:26:41;5.93;;;4.05;;
26598;SDS011;14240;51.064;16.612;2023-12-20T14:29:07;6.85;;;3.42;;
26598;SDS011;14240;51.064;16.612;2023-12-20T14:31:33;18.52;;;5.47;;